sensor_id;sensor_type;location;lat;lon;timestamp;P1;durP1;ratioP1;P2;durP2;ratioP2
1593;SDS011;790;47.000;16.084;2023-03-05T00:00:47;10.53;;;8.77;;
1593;SDS011;790;47.000;16.084;2023-03-05T00:03:15;12.20;;;9.17;;
1593;SDS011;790;47.000;16.084;2023-03-05T00:05:43;10.10;;;8.40;;
1593;SDS011;790;47.000;16.084;2023-03-05T00:08:10;10.83;;;9.00;;
1593;SDS011;790;47.000;16.084;2023-03-05T00:10:37;9.83;;;8.83;;
1593;SDS011;790;47.000;16.084;2023-03-05T00:13:05;10.80;;;9.40;;
1593;SDS011;790;47.000;16.084;2023-03-05T00:15:32;10.53;;;9.23;;
1593;SDS011;790;47.000;16.084;2023-03-05T00:17:59;13.00;;;8.50;;
1593;SDS011;790;47.000;16.084;2023-03-05T00:20:26;11.23;;;8.50;;
1593;SDS011;790;47.000;16.084;2023-03-05T00:22:55;15.20;;;9.80;;
1593;SDS011;790;47.000;16.084;2023-03-05T00:25:22;11.13;;;9.33;;
1593;SDS011;790;47.000;16.084;2023-03-05T00:27:49;10.43;;;8.53;;
1593;SDS011;790;47.000;16.084;2023-03-05T00:30:16;10.93;;;8.10;;
1593;SDS011;790;47.000;16.084;2023-03-05T00:32:44;10.63;;;8.37;;
1593;SDS011;790;47.000;16.084;2023-03-05T00:35:11;8.73;;;7.77;;
1593;SDS011;790;47.000;16.084;2023-03-05T00:37:38;10.70;;;7.90;;
1593;SDS011;790;47.000;16.084;2023-03-05T00:40:09;9.53;;;8.53;;
1593;SDS011;790;47.000;16.084;2023-03-05T00:42:37;10.13;;;7.93;;
1593;SDS011;790;47.000;16.084;2023-03-05T00:45:05;11.07;;;8.90;;
1593;SDS011;790;47.000;16.084;2023-03-05T00:47:34;11.50;;;8.70;;
1593;SDS011;790;47.000;16.084;2023-03-05T00:50:01;11.03;;;8.43;;
1593;SDS011;790;47.000;16.084;2023-03-05T00:52:30;11.93;;;9.43;;
1593;SDS011;790;47.000;16.084;2023-03-05T00:54:57;12.90;;;8.80;;
1593;SDS011;790;47.000;16.084;2023-03-05T00:57:26;11.10;;;8.73;;
1593;SDS011;790;47.000;16.084;2023-03-05T00:59:53;12.67;;;9.97;;
1593;SDS011;790;47.000;16.084;2023-03-05T01:02:20;12.53;;;8.70;;
1593;SDS011;790;47.000;16.084;2023-03-05T01:04:47;11.27;;;8.87;;
1593;SDS011;790;47.000;16.084;2023-03-05T01:07:14;11.00;;;8.47;;
1593;SDS011;790;47.000;16.084;2023-03-05T01:09:41;10.10;;;8.00;;
1593;SDS011;790;47.000;16.084;2023-03-05T01:12:08;10.97;;;8.60;;
1593;SDS011;790;47.000;16.084;2023-03-05T01:14:37;13.47;;;8.37;;
1593;SDS011;790;47.000;16.084;2023-03-05T01:17:05;12.17;;;8.60;;
1593;SDS011;790;47.000;16.084;2023-03-05T01:19:33;13.70;;;9.83;;
1593;SDS011;790;47.000;16.084;2023-03-05T01:22:00;11.93;;;8.47;;
1593;SDS011;790;47.000;16.084;2023-03-05T01:24:27;13.50;;;8.90;;
1593;SDS011;790;47.000;16.084;2023-03-05T01:26:56;11.67;;;8.87;;
1593;SDS011;790;47.000;16.084;2023-03-05T01:29:24;13.23;;;9.07;;
1593;SDS011;790;47.000;16.084;2023-03-05T01:31:52;10.37;;;8.33;;
1593;SDS011;790;47.000;16.084;2023-03-05T01:34:20;14.23;;;9.27;;
1593;SDS011;790;47.000;16.084;2023-03-05T01:36:47;11.73;;;9.07;;
1593;SDS011;790;47.000;16.084;2023-03-05T01:39:15;11.90;;;8.87;;
1593;SDS011;790;47.000;16.084;2023-03-05T01:41:42;11.40;;;8.97;;
1593;SDS011;790;47.000;16.084;2023-03-05T01:44:16;10.67;;;8.43;;
1593;SDS011;790;47.000;16.084;2023-03-05T01:46:47;13.43;;;9.60;;
1593;SDS011;790;47.000;16.084;2023-03-05T01:49:32;12.13;;;9.27;;
1593;SDS011;790;47.000;16.084;2023-03-05T01:52:04;12.87;;;8.70;;
1593;SDS011;790;47.000;16.084;2023-03-05T01:54:36;12.50;;;9.10;;
1593;SDS011;790;47.000;16.084;2023-03-05T01:57:09;11.40;;;8.63;;
1593;SDS011;790;47.000;16.084;2023-03-05T01:59:40;12.33;;;9.53;;
1593;SDS011;790;47.000;16.084;2023-03-05T02:02:11;13.37;;;8.83;;
1593;SDS011;790;47.000;16.084;2023-03-05T02:04:45;10.73;;;8.70;;
1593;SDS011;790;47.000;16.084;2023-03-05T02:07:16;11.40;;;8.53;;
1593;SDS011;790;47.000;16.084;2023-03-05T02:09:44;11.40;;;8.57;;
1593;SDS011;790;47.000;16.084;2023-03-05T02:12:11;13.13;;;9.70;;
1593;SDS011;790;47.000;16.084;2023-03-05T02:14:40;11.80;;;9.17;;
1593;SDS011;790;47.000;16.084;2023-03-05T02:17:09;11.73;;;8.97;;
1593;SDS011;790;47.000;16.084;2023-03-05T02:19:49;11.77;;;9.10;;
1593;SDS011;790;47.000;16.084;2023-03-05T02:22:21;12.57;;;9.37;;
1593;SDS011;790;47.000;16.084;2023-03-05T02:24:49;12.50;;;8.80;;
1593;SDS011;790;47.000;16.084;2023-03-05T02:27:17;13.50;;;9.43;;
1593;SDS011;790;47.000;16.084;2023-03-05T02:29:48;14.10;;;9.80;;
1593;SDS011;790;47.000;16.084;2023-03-05T02:32:16;11.37;;;8.63;;
1593;SDS011;790;47.000;16.084;2023-03-05T02:34:43;11.60;;;8.70;;
1593;SDS011;790;47.000;16.084;2023-03-05T02:37:10;13.03;;;8.67;;
1593;SDS011;790;47.000;16.084;2023-03-05T02:39:41;10.90;;;8.90;;
1593;SDS011;790;47.000;16.084;2023-03-05T02:42:08;12.27;;;9.20;;
1593;SDS011;790;47.000;16.084;2023-03-05T02:44:35;12.90;;;8.80;;
1593;SDS011;790;47.000;16.084;2023-03-05T02:47:02;10.63;;;8.27;;
1593;SDS011;790;47.000;16.084;2023-03-05T02:49:31;12.07;;;8.57;;
1593;SDS011;790;47.000;16.084;2023-03-05T02:51:58;9.47;;;8.43;;
1593;SDS011;790;47.000;16.084;2023-03-05T02:54:25;12.30;;;8.47;;
1593;SDS011;790;47.000;16.084;2023-03-05T02:56:53;12.60;;;8.97;;
1593;SDS011;790;47.000;16.084;2023-03-05T02:59:21;11.90;;;9.17;;
1593;SDS011;790;47.000;16.084;2023-03-05T03:01:48;11.43;;;8.80;;
1593;SDS011;790;47.000;16.084;2023-03-05T03:04:15;13.27;;;8.70;;
1593;SDS011;790;47.000;16.084;2023-03-05T03:06:42;11.93;;;9.33;;
1593;SDS011;790;47.000;16.084;2023-03-05T03:09:10;14.30;;;9.43;;
1593;SDS011;790;47.000;16.084;2023-03-05T03:11:37;13.53;;;9.73;;
1593;SDS011;790;47.000;16.084;2023-03-05T03:14:06;10.53;;;8.03;;
1593;SDS011;790;47.000;16.084;2023-03-05T03:16:33;13.87;;;9.50;;
1593;SDS011;790;47.000;16.084;2023-03-05T03:19:01;14.40;;;9.70;;
1593;SDS011;790;47.000;16.084;2023-03-05T03:21:28;12.33;;;9.70;;
1593;SDS011;790;47.000;16.084;2023-03-05T03:23:56;10.60;;;8.47;;
1593;SDS011;790;47.000;16.084;2023-03-05T03:26:23;11.47;;;9.17;;
1593;SDS011;790;47.000;16.084;2023-03-05T03:28:51;12.43;;;8.63;;
1593;SDS011;790;47.000;16.084;2023-03-05T03:31:20;12.90;;;9.47;;
1593;SDS011;790;47.000;16.084;2023-03-05T03:33:47;12.20;;;8.90;;
1593;SDS011;790;47.000;16.084;2023-03-05T03:36:15;11.83;;;9.20;;
1593;SDS011;790;47.000;16.084;2023-03-05T03:38:42;14.03;;;10.03;;
1593;SDS011;790;47.000;16.084;2023-03-05T03:41:09;11.53;;;8.83;;
1593;SDS011;790;47.000;16.084;2023-03-05T03:43:36;11.80;;;8.73;;
1593;SDS011;790;47.000;16.084;2023-03-05T03:46:04;14.10;;;9.90;;
1593;SDS011;790;47.000;16.084;2023-03-05T03:48:32;12.53;;;8.37;;
1593;SDS011;790;47.000;16.084;2023-03-05T03:51:02;11.50;;;9.13;;
1593;SDS011;790;47.000;16.084;2023-03-05T03:53:31;11.33;;;9.20;;
1593;SDS011;790;47.000;16.084;2023-03-05T03:55:58;13.17;;;9.23;;
1593;SDS011;790;47.000;16.084;2023-03-05T03:58:26;11.47;;;8.97;;
1593;SDS011;790;47.000;16.084;2023-03-05T04:00:53;13.30;;;9.23;;
1593;SDS011;790;47.000;16.084;2023-03-05T04:03:20;11.63;;;9.47;;
1593;SDS011;790;47.000;16.084;2023-03-05T04:05:49;12.43;;;9.07;;
1593;SDS011;790;47.000;16.084;2023-03-05T04:08:16;12.30;;;8.83;;
1593;SDS011;790;47.000;16.084;2023-03-05T04:10:43;12.27;;;8.97;;
1593;SDS011;790;47.000;16.084;2023-03-05T04:13:10;13.53;;;8.67;;
1593;SDS011;790;47.000;16.084;2023-03-05T04:15:38;12.93;;;9.60;;
1593;SDS011;790;47.000;16.084;2023-03-05T04:18:06;13.57;;;9.40;;
1593;SDS011;790;47.000;16.084;2023-03-05T04:20:35;12.50;;;9.27;;
1593;SDS011;790;47.000;16.084;2023-03-05T04:23:04;13.43;;;9.33;;
1593;SDS011;790;47.000;16.084;2023-03-05T04:25:31;15.57;;;9.10;;
1593;SDS011;790;47.000;16.084;2023-03-05T04:27:58;12.17;;;8.67;;
1593;SDS011;790;47.000;16.084;2023-03-05T04:30:25;12.33;;;8.40;;
1593;SDS011;790;47.000;16.084;2023-03-05T04:32:52;13.53;;;9.27;;
1593;SDS011;790;47.000;16.084;2023-03-05T04:35:20;13.87;;;9.93;;
1593;SDS011;790;47.000;16.084;2023-03-05T04:37:48;16.17;;;11.57;;
1593;SDS011;790;47.000;16.084;2023-03-05T04:40:17;13.47;;;9.77;;
1593;SDS011;790;47.000;16.084;2023-03-05T04:42:45;14.33;;;9.43;;
1593;SDS011;790;47.000;16.084;2023-03-05T04:45:12;15.50;;;8.87;;
1593;SDS011;790;47.000;16.084;2023-03-05T04:47:41;12.83;;;9.70;;
1593;SDS011;790;47.000;16.084;2023-03-05T04:50:09;11.13;;;8.80;;
1593;SDS011;790;47.000;16.084;2023-03-05T04:52:38;17.10;;;9.23;;
1593;SDS011;790;47.000;16.084;2023-03-05T04:55:07;13.40;;;9.80;;
1593;SDS011;790;47.000;16.084;2023-03-05T04:57:36;12.70;;;9.40;;
1593;SDS011;790;47.000;16.084;2023-03-05T05:00:04;14.80;;;9.60;;
1593;SDS011;790;47.000;16.084;2023-03-05T05:02:39;13.83;;;9.27;;
1593;SDS011;790;47.000;16.084;2023-03-05T05:05:07;14.00;;;9.47;;
1593;SDS011;790;47.000;16.084;2023-03-05T05:07:37;12.60;;;9.40;;
1593;SDS011;790;47.000;16.084;2023-03-05T05:10:04;12.40;;;9.03;;
1593;SDS011;790;47.000;16.084;2023-03-05T05:12:33;12.73;;;9.43;;
1593;SDS011;790;47.000;16.084;2023-03-05T05:15:07;12.80;;;9.00;;
1593;SDS011;790;47.000;16.084;2023-03-05T05:17:35;12.23;;;9.50;;
1593;SDS011;790;47.000;16.084;2023-03-05T05:20:03;14.53;;;9.03;;
1593;SDS011;790;47.000;16.084;2023-03-05T05:22:33;13.60;;;9.73;;
1593;SDS011;790;47.000;16.084;2023-03-05T05:25:00;12.70;;;9.10;;
1593;SDS011;790;47.000;16.084;2023-03-05T05:27:29;14.30;;;9.17;;
1593;SDS011;790;47.000;16.084;2023-03-05T05:29:56;13.43;;;9.30;;
1593;SDS011;790;47.000;16.084;2023-03-05T05:32:25;11.30;;;8.77;;
1593;SDS011;790;47.000;16.084;2023-03-05T05:34:53;13.63;;;10.07;;
1593;SDS011;790;47.000;16.084;2023-03-05T05:37:22;11.47;;;9.00;;
1593;SDS011;790;47.000;16.084;2023-03-05T05:39:50;12.43;;;9.60;;
1593;SDS011;790;47.000;16.084;2023-03-05T05:42:18;13.00;;;9.27;;
1593;SDS011;790;47.000;16.084;2023-03-05T05:44:47;12.83;;;9.57;;
1593;SDS011;790;47.000;16.084;2023-03-05T05:47:15;12.60;;;8.47;;
1593;SDS011;790;47.000;16.084;2023-03-05T05:49:44;14.83;;;10.43;;
1593;SDS011;790;47.000;16.084;2023-03-05T05:52:13;12.87;;;9.20;;
1593;SDS011;790;47.000;16.084;2023-03-05T05:54:40;12.80;;;9.30;;
1593;SDS011;790;47.000;16.084;2023-03-05T05:57:07;13.83;;;8.97;;
1593;SDS011;790;47.000;16.084;2023-03-05T05:59:35;13.40;;;9.70;;
1593;SDS011;790;47.000;16.084;2023-03-05T06:02:02;13.03;;;9.90;;
1593;SDS011;790;47.000;16.084;2023-03-05T06:04:30;12.70;;;9.07;;
1593;SDS011;790;47.000;16.084;2023-03-05T06:06:59;11.77;;;9.70;;
1593;SDS011;790;47.000;16.084;2023-03-05T06:09:27;30.10;;;17.93;;
1593;SDS011;790;47.000;16.084;2023-03-05T06:11:55;25.57;;;15.53;;
1593;SDS011;790;47.000;16.084;2023-03-05T06:14:22;17.77;;;12.23;;
1593;SDS011;790;47.000;16.084;2023-03-05T06:16:49;30.43;;;16.10;;
1593;SDS011;790;47.000;16.084;2023-03-05T06:19:16;29.83;;;17.23;;
1593;SDS011;790;47.000;16.084;2023-03-05T06:21:43;15.17;;;10.73;;
1593;SDS011;790;47.000;16.084;2023-03-05T06:24:12;15.73;;;10.77;;
1593;SDS011;790;47.000;16.084;2023-03-05T06:26:39;17.47;;;10.70;;
1593;SDS011;790;47.000;16.084;2023-03-05T06:29:07;19.27;;;12.37;;
1593;SDS011;790;47.000;16.084;2023-03-05T06:31:35;19.80;;;13.40;;
1593;SDS011;790;47.000;16.084;2023-03-05T06:34:02;19.90;;;13.40;;
1593;SDS011;790;47.000;16.084;2023-03-05T06:36:29;19.70;;;13.73;;
1593;SDS011;790;47.000;16.084;2023-03-05T06:38:57;30.93;;;19.20;;
1593;SDS011;790;47.000;16.084;2023-03-05T06:41:26;23.83;;;16.13;;
1593;SDS011;790;47.000;16.084;2023-03-05T06:43:55;25.47;;;16.00;;
1593;SDS011;790;47.000;16.084;2023-03-05T06:46:26;17.70;;;12.43;;
1593;SDS011;790;47.000;16.084;2023-03-05T06:48:55;17.03;;;11.87;;
1593;SDS011;790;47.000;16.084;2023-03-05T06:51:24;18.10;;;12.30;;
1593;SDS011;790;47.000;16.084;2023-03-05T06:53:53;19.30;;;14.77;;
1593;SDS011;790;47.000;16.084;2023-03-05T06:56:21;19.17;;;14.83;;
1593;SDS011;790;47.000;16.084;2023-03-05T06:58:54;19.17;;;15.23;;
1593;SDS011;790;47.000;16.084;2023-03-05T07:01:21;23.50;;;17.43;;
1593;SDS011;790;47.000;16.084;2023-03-05T07:03:50;20.23;;;17.67;;
1593;SDS011;790;47.000;16.084;2023-03-05T07:06:34;23.23;;;18.47;;
1593;SDS011;790;47.000;16.084;2023-03-05T07:09:02;24.00;;;16.43;;
1593;SDS011;790;47.000;16.084;2023-03-05T07:11:31;26.90;;;17.13;;
1593;SDS011;790;47.000;16.084;2023-03-05T07:14:01;21.73;;;16.60;;
1593;SDS011;790;47.000;16.084;2023-03-05T07:16:29;28.13;;;20.27;;
1593;SDS011;790;47.000;16.084;2023-03-05T07:18:58;30.20;;;22.23;;
1593;SDS011;790;47.000;16.084;2023-03-05T07:21:28;31.20;;;20.93;;
1593;SDS011;790;47.000;16.084;2023-03-05T07:23:57;29.63;;;20.70;;
1593;SDS011;790;47.000;16.084;2023-03-05T07:26:25;27.37;;;18.73;;
1593;SDS011;790;47.000;16.084;2023-03-05T07:28:52;26.17;;;16.70;;
1593;SDS011;790;47.000;16.084;2023-03-05T07:31:24;24.87;;;17.20;;
1593;SDS011;790;47.000;16.084;2023-03-05T07:33:57;26.03;;;16.67;;
1593;SDS011;790;47.000;16.084;2023-03-05T07:36:25;24.07;;;16.47;;
1593;SDS011;790;47.000;16.084;2023-03-05T07:38:52;23.50;;;14.97;;
1593;SDS011;790;47.000;16.084;2023-03-05T07:41:20;21.80;;;15.13;;
1593;SDS011;790;47.000;16.084;2023-03-05T07:43:49;23.03;;;15.53;;
1593;SDS011;790;47.000;16.084;2023-03-05T07:46:19;37.43;;;20.53;;
1593;SDS011;790;47.000;16.084;2023-03-05T07:48:50;29.03;;;19.60;;
1593;SDS011;790;47.000;16.084;2023-03-05T07:51:19;25.70;;;17.40;;
1593;SDS011;790;47.000;16.084;2023-03-05T07:53:49;29.70;;;18.53;;
1593;SDS011;790;47.000;16.084;2023-03-05T07:56:19;30.90;;;17.47;;
1593;SDS011;790;47.000;16.084;2023-03-05T07:58:47;29.83;;;17.53;;
1593;SDS011;790;47.000;16.084;2023-03-05T08:01:14;26.30;;;17.20;;
1593;SDS011;790;47.000;16.084;2023-03-05T08:03:42;24.43;;;16.33;;
1593;SDS011;790;47.000;16.084;2023-03-05T08:06:15;25.60;;;15.83;;
1593;SDS011;790;47.000;16.084;2023-03-05T08:08:42;23.60;;;16.43;;
1593;SDS011;790;47.000;16.084;2023-03-05T08:11:10;24.50;;;17.27;;
1593;SDS011;790;47.000;16.084;2023-03-05T08:13:39;26.73;;;17.30;;
1593;SDS011;790;47.000;16.084;2023-03-05T08:16:07;26.20;;;16.73;;
1593;SDS011;790;47.000;16.084;2023-03-05T08:18:37;24.60;;;15.93;;
1593;SDS011;790;47.000;16.084;2023-03-05T08:21:16;23.03;;;16.37;;
1593;SDS011;790;47.000;16.084;2023-03-05T08:23:45;21.97;;;15.30;;
1593;SDS011;790;47.000;16.084;2023-03-05T08:26:13;30.90;;;18.03;;
1593;SDS011;790;47.000;16.084;2023-03-05T08:28:43;20.40;;;14.97;;
1593;SDS011;790;47.000;16.084;2023-03-05T08:31:12;23.07;;;15.50;;
1593;SDS011;790;47.000;16.084;2023-03-05T08:33:40;27.43;;;17.83;;
1593;SDS011;790;47.000;16.084;2023-03-05T08:36:08;27.40;;;18.63;;
1593;SDS011;790;47.000;16.084;2023-03-05T08:38:37;23.57;;;16.20;;
1593;SDS011;790;47.000;16.084;2023-03-05T08:41:06;24.03;;;17.80;;
1593;SDS011;790;47.000;16.084;2023-03-05T08:43:33;24.40;;;16.63;;
1593;SDS011;790;47.000;16.084;2023-03-05T08:46:01;25.27;;;16.10;;
1593;SDS011;790;47.000;16.084;2023-03-05T08:48:29;25.03;;;16.73;;
1593;SDS011;790;47.000;16.084;2023-03-05T08:50:57;21.00;;;15.03;;
1593;SDS011;790;47.000;16.084;2023-03-05T08:53:30;20.47;;;15.47;;
1593;SDS011;790;47.000;16.084;2023-03-05T08:55:59;21.27;;;16.03;;
1593;SDS011;790;47.000;16.084;2023-03-05T08:58:27;28.40;;;18.30;;
1593;SDS011;790;47.000;16.084;2023-03-05T09:00:55;21.57;;;16.33;;
1593;SDS011;790;47.000;16.084;2023-03-05T09:03:22;22.83;;;16.70;;
1593;SDS011;790;47.000;16.084;2023-03-05T09:08:43;20.47;;;14.63;;
1593;SDS011;790;47.000;16.084;2023-03-05T09:11:34;22.40;;;15.70;;
1593;SDS011;790;47.000;16.084;2023-03-05T09:14:08;23.60;;;15.63;;
1593;SDS011;790;47.000;16.084;2023-03-05T09:16:49;21.93;;;16.00;;
1593;SDS011;790;47.000;16.084;2023-03-05T09:19:26;19.80;;;15.37;;
1593;SDS011;790;47.000;16.084;2023-03-05T09:21:53;21.00;;;15.10;;
1593;SDS011;790;47.000;16.084;2023-03-05T09:24:23;21.63;;;14.60;;
1593;SDS011;790;47.000;16.084;2023-03-05T09:26:56;21.03;;;15.63;;
1593;SDS011;790;47.000;16.084;2023-03-05T09:29:25;19.37;;;14.80;;
1593;SDS011;790;47.000;16.084;2023-03-05T09:31:54;23.23;;;15.80;;
1593;SDS011;790;47.000;16.084;2023-03-05T09:34:21;19.90;;;15.73;;
1593;SDS011;790;47.000;16.084;2023-03-05T09:36:49;20.87;;;15.53;;
1593;SDS011;790;47.000;16.084;2023-03-05T09:39:16;34.00;;;22.33;;
1593;SDS011;790;47.000;16.084;2023-03-05T09:45:06;35.80;;;23.43;;
1593;SDS011;790;47.000;16.084;2023-03-05T09:47:53;69.53;;;38.00;;
1593;SDS011;790;47.000;16.084;2023-03-05T09:50:44;39.73;;;23.43;;
1593;SDS011;790;47.000;16.084;2023-03-05T09:53:43;61.93;;;35.90;;
1593;SDS011;790;47.000;16.084;2023-03-05T09:56:14;27.97;;;18.33;;
1593;SDS011;790;47.000;16.084;2023-03-05T09:58:53;24.47;;;15.87;;
1593;SDS011;790;47.000;16.084;2023-03-05T10:01:48;22.97;;;16.60;;
1593;SDS011;790;47.000;16.084;2023-03-05T10:04:27;37.10;;;24.30;;
1593;SDS011;790;47.000;16.084;2023-03-05T10:07:16;27.73;;;18.20;;
1593;SDS011;790;47.000;16.084;2023-03-05T10:09:53;21.00;;;15.60;;
1593;SDS011;790;47.000;16.084;2023-03-05T10:12:34;28.20;;;18.03;;
1593;SDS011;790;47.000;16.084;2023-03-05T10:15:09;24.57;;;17.27;;
1593;SDS011;790;47.000;16.084;2023-03-05T10:18:06;23.57;;;15.57;;
1593;SDS011;790;47.000;16.084;2023-03-05T10:20:55;22.30;;;16.57;;
1593;SDS011;790;47.000;16.084;2023-03-05T10:26:26;23.10;;;16.13;;
1593;SDS011;790;47.000;16.084;2023-03-05T10:29:45;21.30;;;15.90;;
1593;SDS011;790;47.000;16.084;2023-03-05T10:32:49;21.07;;;16.67;;
1593;SDS011;790;47.000;16.084;2023-03-05T10:35:46;28.53;;;17.87;;
1593;SDS011;790;47.000;16.084;2023-03-05T10:39:04;27.03;;;19.53;;
1593;SDS011;790;47.000;16.084;2023-03-05T10:42:08;24.03;;;16.23;;
1593;SDS011;790;47.000;16.084;2023-03-05T10:44:48;24.57;;;16.07;;
1593;SDS011;790;47.000;16.084;2023-03-05T10:47:23;22.93;;;16.17;;
1593;SDS011;790;47.000;16.084;2023-03-05T10:50:13;26.70;;;17.30;;
1593;SDS011;790;47.000;16.084;2023-03-05T10:55:46;22.43;;;16.13;;
1593;SDS011;790;47.000;16.084;2023-03-05T11:01:44;20.37;;;15.80;;
1593;SDS011;790;47.000;16.084;2023-03-05T11:04:38;23.10;;;16.97;;
1593;SDS011;790;47.000;16.084;2023-03-05T11:07:35;20.93;;;15.13;;
1593;SDS011;790;47.000;16.084;2023-03-05T11:10:46;19.17;;;14.63;;
1593;SDS011;790;47.000;16.084;2023-03-05T11:13:31;20.53;;;16.00;;
1593;SDS011;790;47.000;16.084;2023-03-05T11:16:05;22.87;;;16.10;;
1593;SDS011;790;47.000;16.084;2023-03-05T11:19:11;19.77;;;14.47;;
1593;SDS011;790;47.000;16.084;2023-03-05T11:22:01;25.13;;;17.37;;
1593;SDS011;790;47.000;16.084;2023-03-05T11:24:40;23.63;;;16.13;;
1593;SDS011;790;47.000;16.084;2023-03-05T11:27:31;21.30;;;15.63;;
1593;SDS011;790;47.000;16.084;2023-03-05T11:30:15;27.80;;;18.60;;
1593;SDS011;790;47.000;16.084;2023-03-05T11:33:08;28.23;;;17.77;;
1593;SDS011;790;47.000;16.084;2023-03-05T11:35:48;23.33;;;16.90;;
1593;SDS011;790;47.000;16.084;2023-03-05T11:38:43;25.63;;;17.67;;
1593;SDS011;790;47.000;16.084;2023-03-05T11:41:14;26.03;;;18.40;;
1593;SDS011;790;47.000;16.084;2023-03-05T11:43:52;22.93;;;15.80;;
1593;SDS011;790;47.000;16.084;2023-03-05T11:46:21;29.03;;;18.57;;
1593;SDS011;790;47.000;16.084;2023-03-05T11:49:01;20.50;;;15.10;;
1593;SDS011;790;47.000;16.084;2023-03-05T11:51:51;24.43;;;15.93;;
1593;SDS011;790;47.000;16.084;2023-03-05T11:54:31;37.93;;;25.27;;
1593;SDS011;790;47.000;16.084;2023-03-05T11:57:22;25.07;;;19.20;;
1593;SDS011;790;47.000;16.084;2023-03-05T11:59:57;28.83;;;19.00;;
1593;SDS011;790;47.000;16.084;2023-03-05T12:02:35;32.07;;;20.37;;
1593;SDS011;790;47.000;16.084;2023-03-05T12:07:55;47.23;;;26.17;;
1593;SDS011;790;47.000;16.084;2023-03-05T12:10:26;23.37;;;16.17;;
1593;SDS011;790;47.000;16.084;2023-03-05T12:13:11;30.47;;;21.13;;
1593;SDS011;790;47.000;16.084;2023-03-05T12:15:57;29.10;;;20.10;;
1593;SDS011;790;47.000;16.084;2023-03-05T12:18:37;26.50;;;18.33;;
1593;SDS011;790;47.000;16.084;2023-03-05T12:21:26;23.97;;;16.07;;
1593;SDS011;790;47.000;16.084;2023-03-05T12:27:15;28.00;;;18.50;;
1593;SDS011;790;47.000;16.084;2023-03-05T12:29:58;24.37;;;17.47;;
1593;SDS011;790;47.000;16.084;2023-03-05T12:35:31;22.30;;;15.23;;
1593;SDS011;790;47.000;16.084;2023-03-05T12:38:17;24.23;;;16.23;;
1593;SDS011;790;47.000;16.084;2023-03-05T12:44:18;25.07;;;15.93;;
1593;SDS011;790;47.000;16.084;2023-03-05T12:49:59;20.13;;;15.60;;
1593;SDS011;790;47.000;16.084;2023-03-05T12:52:35;22.70;;;16.20;;
1593;SDS011;790;47.000;16.084;2023-03-05T12:55:17;23.10;;;16.90;;
1593;SDS011;790;47.000;16.084;2023-03-05T12:57:51;23.57;;;15.13;;
1593;SDS011;790;47.000;16.084;2023-03-05T13:00:26;22.60;;;16.97;;
1593;SDS011;790;47.000;16.084;2023-03-05T13:03:06;24.47;;;16.60;;
1593;SDS011;790;47.000;16.084;2023-03-05T13:05:51;22.30;;;15.53;;
1593;SDS011;790;47.000;16.084;2023-03-05T13:08:22;22.87;;;14.83;;
1593;SDS011;790;47.000;16.084;2023-03-05T13:10:57;19.37;;;14.77;;
1593;SDS011;790;47.000;16.084;2023-03-05T13:13:31;20.03;;;14.87;;
1593;SDS011;790;47.000;16.084;2023-03-05T13:16:05;18.50;;;14.40;;
1593;SDS011;790;47.000;16.084;2023-03-05T13:18:44;19.10;;;14.90;;
1593;SDS011;790;47.000;16.084;2023-03-05T13:21:23;20.07;;;14.57;;
1593;SDS011;790;47.000;16.084;2023-03-05T13:24:01;21.63;;;14.73;;
1593;SDS011;790;47.000;16.084;2023-03-05T13:26:54;18.80;;;14.53;;
1593;SDS011;790;47.000;16.084;2023-03-05T13:29:25;21.40;;;15.23;;
1593;SDS011;790;47.000;16.084;2023-03-05T13:31:58;17.40;;;13.27;;
1593;SDS011;790;47.000;16.084;2023-03-05T13:34:50;21.70;;;14.80;;
1593;SDS011;790;47.000;16.084;2023-03-05T13:37:27;19.93;;;13.50;;
1593;SDS011;790;47.000;16.084;2023-03-05T13:40:02;17.03;;;13.10;;
1593;SDS011;790;47.000;16.084;2023-03-05T13:42:44;19.47;;;14.03;;
1593;SDS011;790;47.000;16.084;2023-03-05T13:45:23;18.63;;;13.30;;
1593;SDS011;790;47.000;16.084;2023-03-05T13:48:04;19.27;;;13.10;;
1593;SDS011;790;47.000;16.084;2023-03-05T13:50:52;22.97;;;14.50;;
1593;SDS011;790;47.000;16.084;2023-03-05T13:53:36;17.53;;;13.23;;
1593;SDS011;790;47.000;16.084;2023-03-05T13:56:06;19.93;;;14.30;;
1593;SDS011;790;47.000;16.084;2023-03-05T13:58:43;19.83;;;13.97;;
1593;SDS011;790;47.000;16.084;2023-03-05T14:01:27;17.00;;;13.03;;
1593;SDS011;790;47.000;16.084;2023-03-05T14:04:05;24.63;;;14.50;;
1593;SDS011;790;47.000;16.084;2023-03-05T14:06:45;21.43;;;13.57;;
1593;SDS011;790;47.000;16.084;2023-03-05T14:09:22;19.80;;;14.33;;
1593;SDS011;790;47.000;16.084;2023-03-05T14:12:00;18.47;;;13.10;;
1593;SDS011;790;47.000;16.084;2023-03-05T14:14:38;20.23;;;13.77;;
1593;SDS011;790;47.000;16.084;2023-03-05T14:20:21;21.13;;;13.17;;
1593;SDS011;790;47.000;16.084;2023-03-05T14:22:53;18.07;;;13.00;;
1593;SDS011;790;47.000;16.084;2023-03-05T14:25:27;21.27;;;14.03;;
1593;SDS011;790;47.000;16.084;2023-03-05T14:28:04;18.43;;;12.60;;
1593;SDS011;790;47.000;16.084;2023-03-05T14:30:52;20.77;;;13.53;;
1593;SDS011;790;47.000;16.084;2023-03-05T14:33:26;19.27;;;13.87;;
1593;SDS011;790;47.000;16.084;2023-03-05T14:36:09;16.57;;;11.53;;
1593;SDS011;790;47.000;16.084;2023-03-05T14:38:38;21.27;;;15.40;;
1593;SDS011;790;47.000;16.084;2023-03-05T14:44:20;28.93;;;15.57;;
1593;SDS011;790;47.000;16.084;2023-03-05T14:49:55;30.27;;;16.97;;
1593;SDS011;790;47.000;16.084;2023-03-05T14:52:37;30.77;;;16.80;;
1593;SDS011;790;47.000;16.084;2023-03-05T14:55:12;22.97;;;13.87;;
1593;SDS011;790;47.000;16.084;2023-03-05T14:57:58;31.20;;;14.43;;
1593;SDS011;790;47.000;16.084;2023-03-05T15:00:38;30.30;;;16.80;;
1593;SDS011;790;47.000;16.084;2023-03-05T15:05:53;30.67;;;16.00;;
1593;SDS011;790;47.000;16.084;2023-03-05T15:08:36;22.10;;;13.40;;
1593;SDS011;790;47.000;16.084;2023-03-05T15:11:10;27.33;;;14.00;;
1593;SDS011;790;47.000;16.084;2023-03-05T15:13:39;21.00;;;14.00;;
1593;SDS011;790;47.000;16.084;2023-03-05T15:16:10;30.07;;;15.53;;
1593;SDS011;790;47.000;16.084;2023-03-05T15:19:11;22.73;;;14.63;;
1593;SDS011;790;47.000;16.084;2023-03-05T15:21:59;25.17;;;14.57;;
1593;SDS011;790;47.000;16.084;2023-03-05T15:24:41;23.90;;;13.83;;
1593;SDS011;790;47.000;16.084;2023-03-05T15:27:09;24.63;;;15.30;;
1593;SDS011;790;47.000;16.084;2023-03-05T15:29:56;23.13;;;15.03;;
1593;SDS011;790;47.000;16.084;2023-03-05T15:32:31;22.90;;;13.47;;
1593;SDS011;790;47.000;16.084;2023-03-05T15:35:02;20.00;;;13.43;;
1593;SDS011;790;47.000;16.084;2023-03-05T15:37:46;21.07;;;13.80;;
1593;SDS011;790;47.000;16.084;2023-03-05T15:40:24;19.33;;;13.40;;
1593;SDS011;790;47.000;16.084;2023-03-05T15:42:58;17.60;;;12.27;;
1593;SDS011;790;47.000;16.084;2023-03-05T15:48:27;20.73;;;11.60;;
1593;SDS011;790;47.000;16.084;2023-03-05T15:50:59;17.93;;;12.07;;
1593;SDS011;790;47.000;16.084;2023-03-05T15:53:44;16.73;;;11.70;;
1593;SDS011;790;47.000;16.084;2023-03-05T15:56:13;17.43;;;11.93;;
1593;SDS011;790;47.000;16.084;2023-03-05T15:58:50;17.40;;;12.70;;
1593;SDS011;790;47.000;16.084;2023-03-05T16:04:23;16.43;;;12.03;;
1593;SDS011;790;47.000;16.084;2023-03-05T16:06:53;16.87;;;11.73;;
1593;SDS011;790;47.000;16.084;2023-03-05T16:09:33;17.70;;;12.07;;
1593;SDS011;790;47.000;16.084;2023-03-05T16:14:49;15.37;;;11.80;;
1593;SDS011;790;47.000;16.084;2023-03-05T16:17:28;17.83;;;11.73;;
1593;SDS011;790;47.000;16.084;2023-03-05T16:20:12;19.03;;;11.43;;